MOL Garland — CQHO — position and weather

sailwx.info

Track history (hours):
 
Tides and Currents Weather Stations Pressure Air Temp Water Temp Dewpoint Dewpoint Depression Visibility Wind Speed Wind Dir Waves Ship Positions

MOL Garland

Last reported at 2018-Apr-23 06:59 UTC. Time now 2018-Apr-23 07:28 UTC.
Position N 01°17' E 103°47'.

Length 275 m; draft 10.4 m.

Type: Cargo ship. MMSI: 255805590.

Date/timePositionNaut miles runAvg speedWind from/ knotsBaromVisibWave heightAir tempDewpointWater temp
2018-Apr-23 06:59N 01°17' E 103°47'0 0.0
2018-Apr-23 06:29N 01°17' E 103°47'0 0.0
2018-Apr-23 06:00N 01°17' E 103°47'0 0.0
2018-Apr-23 05:30N 01°17' E 103°47'0 0.0
2018-Apr-23 05:00N 01°17' E 103°47'0 0.0
2018-Apr-23 04:28N 01°17' E 103°47'0 0.0
2018-Apr-23 04:00N 01°17' E 103°47'0 0.0
2018-Apr-23 03:30N 01°17' E 103°47'0 0.0
2018-Apr-23 02:59N 01°17' E 103°47'0 0.0
2018-Apr-23 02:30N 01°17' E 103°47'0 0.0
2018-Apr-23 01:59N 01°17' E 103°47'0 0.0
2018-Apr-23 01:30N 01°17' E 103°47'0 0.0
2018-Apr-23 01:00N 01°17' E 103°47'0 0.4
2018-Apr-23 00:30N 01°16' E 103°47'2 4.5
2018-Apr-23 00:00N 01°14' E 103°47'4 7.3
2018-Apr-22 23:30N 01°12' E 103°50'4 8.0
2018-Apr-22 23:00N 01°14' E 103°54'4 8.6
2018-Apr-22 22:30N 01°15' E 103°58'510.1
2018-Apr-22 21:59N 01°16' E 104°03'3 6.6
2018-Apr-22 21:29N 01°17' E 104°07'4 6.8
2018-Apr-22 20:56N 01°17' E 104°10'3 6.6
2018-Apr-22 20:29N 01°18' E 104°13'6 7.1
2018-Apr-22 19:35N 01°19' E 104°19'  
2018-Apr-18 05:03N 23°02' E 117°15'319.1
2018-Apr-18 04:55N 23°04' E 117°18'819.2
2018-Apr-18 04:29N 23°08' E 117°25'1019.2
2018-Apr-18 03:58N 23°12' E 117°35'918.8
2018-Apr-18 03:28N 23°18' E 117°44'918.8
2018-Apr-18 03:00N 23°24' E 117°50'918.7
2018-Apr-18 02:31N 23°31' E 117°57'1018.9
2018-Apr-18 01:59N 23°37' E 118°05'918.9
2018-Apr-18 01:30N 23°43' E 118°13'1019.0
2018-Apr-18 00:58N 23°49' E 118°22'919.2
2018-Apr-18 00:30N 23°55' E 118°29'1219.1
2018-Apr-17 23:52N 24°03' E 118°39'1119.3
2018-Apr-17 23:19N 24°10' E 118°48'619.4
2018-Apr-17 23:00N 24°14' E 118°53'1019.6
2018-Apr-17 22:30N 24°21' E 119°01'  
2018-Apr-15 16:56N 30°39' E 122°01'0 0.7
2018-Apr-15 16:29N 30°39' E 122°01'0 0.0
2018-Apr-15 15:57N 30°39' E 122°01'0 0.0
2018-Apr-15 14:42N 30°39' E 122°01'0 0.0
2018-Apr-15 14:27N 30°39' E 122°01'0 0.0
2018-Apr-15 13:49N 30°39' E 122°01'0 0.0
2018-Apr-15 13:20N 30°39' E 122°01'0 0.0
2018-Apr-15 12:47N 30°39' E 122°01'0 0.0
2018-Apr-15 12:28N 30°39' E 122°01'0 0.0
2018-Apr-15 11:55N 30°39' E 122°01'0 0.0
2018-Apr-15 11:27N 30°39' E 122°01'0 0.0
2018-Apr-15 11:00N 30°39' E 122°01'0 0.0
2018-Apr-15 10:29N 30°39' E 122°01'0 0.0
2018-Apr-15 09:57N 30°39' E 122°01'0 0.0
2018-Apr-15 09:30N 30°39' E 122°01'0 0.0
2018-Apr-15 07:51N 30°39' E 122°01'0 0.0
2018-Apr-15 07:27N 30°39' E 122°01'0 0.0
2018-Apr-15 06:37N 30°39' E 122°01'0 0.0
2018-Apr-15 06:20N 30°39' E 122°01'0 0.0
2018-Apr-15 05:52N 30°39' E 122°01'0 0.0
2018-Apr-15 05:11N 30°39' E 122°01'0 0.0
2018-Apr-15 04:12N 30°39' E 122°01'0 0.2
2018-Apr-15 03:57N 30°39' E 122°01'1 3.3
2018-Apr-15 03:30N 30°38' E 122°02'6 8.7
2018-Apr-15 02:50N 30°35' E 122°08'  
Track history (hours):
 
Tides and Currents Weather Stations Pressure Air Temp Water Temp Dewpoint Dewpoint Depression Visibility Wind Speed Wind Dir Waves Ship Positions

MOL Garland

Last reported at 2018-Apr-23 06:59 UTC. Time now 2018-Apr-23 07:28 UTC.
Position N 01°17' E 103°47'.

Length 275 m; draft 10.4 m.

Type: Cargo ship. MMSI: 255805590.

Date/timePositionNaut miles runAvg speedWind from/ knotsBaromVisibWave heightAir tempDewpointWater temp
2018-Apr-23 06:59N 01°17' E 103°47'0 0.0
2018-Apr-23 06:29N 01°17' E 103°47'0 0.0
2018-Apr-23 06:00N 01°17' E 103°47'0 0.0
2018-Apr-23 05:30N 01°17' E 103°47'0 0.0
2018-Apr-23 05:00N 01°17' E 103°47'0 0.0
2018-Apr-23 04:28N 01°17' E 103°47'0 0.0
2018-Apr-23 04:00N 01°17' E 103°47'0 0.0
2018-Apr-23 03:30N 01°17' E 103°47'0 0.0
2018-Apr-23 02:59N 01°17' E 103°47'0 0.0
2018-Apr-23 02:30N 01°17' E 103°47'0 0.0
2018-Apr-23 01:59N 01°17' E 103°47'0 0.0
2018-Apr-23 01:30N 01°17' E 103°47'0 0.0
2018-Apr-23 01:00N 01°17' E 103°47'0 0.4
2018-Apr-23 00:30N 01°16' E 103°47'2 4.5
2018-Apr-23 00:00N 01°14' E 103°47'4 7.3
2018-Apr-22 23:30N 01°12' E 103°50'4 8.0
2018-Apr-22 23:00N 01°14' E 103°54'4 8.6
2018-Apr-22 22:30N 01°15' E 103°58'510.1
2018-Apr-22 21:59N 01°16' E 104°03'3 6.6
2018-Apr-22 21:29N 01°17' E 104°07'4 6.8
2018-Apr-22 20:56N 01°17' E 104°10'3 6.6
2018-Apr-22 20:29N 01°18' E 104°13'6 7.1
2018-Apr-22 19:35N 01°19' E 104°19'  
2018-Apr-18 05:03N 23°02' E 117°15'319.1
2018-Apr-18 04:55N 23°04' E 117°18'819.2
2018-Apr-18 04:29N 23°08' E 117°25'1019.2
2018-Apr-18 03:58N 23°12' E 117°35'918.8
2018-Apr-18 03:28N 23°18' E 117°44'918.8
2018-Apr-18 03:00N 23°24' E 117°50'918.7
2018-Apr-18 02:31N 23°31' E 117°57'1018.9
2018-Apr-18 01:59N 23°37' E 118°05'918.9
2018-Apr-18 01:30N 23°43' E 118°13'1019.0
2018-Apr-18 00:58N 23°49' E 118°22'919.2
2018-Apr-18 00:30N 23°55' E 118°29'1219.1
2018-Apr-17 23:52N 24°03' E 118°39'1119.3
2018-Apr-17 23:19N 24°10' E 118°48'619.4
2018-Apr-17 23:00N 24°14' E 118°53'1019.6
2018-Apr-17 22:30N 24°21' E 119°01'  
2018-Apr-15 16:56N 30°39' E 122°01'0 0.7
2018-Apr-15 16:29N 30°39' E 122°01'0 0.0
2018-Apr-15 15:57N 30°39' E 122°01'0 0.0
2018-Apr-15 14:42N 30°39' E 122°01'0 0.0
2018-Apr-15 14:27N 30°39' E 122°01'0 0.0
2018-Apr-15 13:49N 30°39' E 122°01'0 0.0
2018-Apr-15 13:20N 30°39' E 122°01'0 0.0
2018-Apr-15 12:47N 30°39' E 122°01'0 0.0
2018-Apr-15 12:28N 30°39' E 122°01'0 0.0
2018-Apr-15 11:55N 30°39' E 122°01'0 0.0
2018-Apr-15 11:27N 30°39' E 122°01'0 0.0
2018-Apr-15 11:00N 30°39' E 122°01'0 0.0
2018-Apr-15 10:29N 30°39' E 122°01'0 0.0
2018-Apr-15 09:57N 30°39' E 122°01'0 0.0
2018-Apr-15 09:30N 30°39' E 122°01'0 0.0
2018-Apr-15 07:51N 30°39' E 122°01'0 0.0
2018-Apr-15 07:27N 30°39' E 122°01'0 0.0
2018-Apr-15 06:37N 30°39' E 122°01'0 0.0
2018-Apr-15 06:20N 30°39' E 122°01'0 0.0
2018-Apr-15 05:52N 30°39' E 122°01'0 0.0
2018-Apr-15 05:11N 30°39' E 122°01'0 0.0
2018-Apr-15 04:12N 30°39' E 122°01'0 0.2
2018-Apr-15 03:57N 30°39' E 122°01'1 3.3
2018-Apr-15 03:30N 30°38' E 122°02'6 8.7
2018-Apr-15 02:50N 30°35' E 122°08'  

Dump ship's entire track history